sensor_id;sensor_type;location;lat;lon;timestamp;temperature;humidity
11963;DHT22;62678;52.130;5.584;2022-12-18T00:02:16;-2.40;99.90
11963;DHT22;62678;52.130;5.584;2022-12-18T00:04:42;-2.30;99.90
11963;DHT22;62678;52.130;5.584;2022-12-18T00:07:09;-2.50;99.90
11963;DHT22;62678;52.130;5.584;2022-12-18T00:09:36;-2.50;99.90
11963;DHT22;62678;52.130;5.584;2022-12-18T00:12:03;-2.40;99.90
11963;DHT22;62678;52.130;5.584;2022-12-18T00:14:32;-2.60;99.90
11963;DHT22;62678;52.130;5.584;2022-12-18T00:16:58;-2.70;99.90
11963;DHT22;62678;52.130;5.584;2022-12-18T00:19:26;-2.80;99.90
11963;DHT22;62678;52.130;5.584;2022-12-18T00:21:53;-2.70;99.90
11963;DHT22;62678;52.130;5.584;2022-12-18T00:24:19;-2.60;99.90
11963;DHT22;62678;52.130;5.584;2022-12-18T00:26:46;-2.50;99.90
11963;DHT22;62678;52.130;5.584;2022-12-18T00:29:13;-2.50;99.90
11963;DHT22;62678;52.130;5.584;2022-12-18T00:31:42;-2.50;99.90
11963;DHT22;62678;52.130;5.584;2022-12-18T00:34:10;-2.60;99.90
11963;DHT22;62678;52.130;5.584;2022-12-18T00:36:38;-2.70;99.90
11963;DHT22;62678;52.130;5.584;2022-12-18T00:39:05;-2.70;99.90
11963;DHT22;62678;52.130;5.584;2022-12-18T00:41:32;-2.80;99.90
11963;DHT22;62678;52.130;5.584;2022-12-18T00:44:18;-2.80;99.90
11963;DHT22;62678;52.130;5.584;2022-12-18T00:46:47;-2.70;99.90
11963;DHT22;62678;52.130;5.584;2022-12-18T00:49:15;-2.70;99.90
11963;DHT22;62678;52.130;5.584;2022-12-18T00:51:42;-2.70;99.90
11963;DHT22;62678;52.130;5.584;2022-12-18T00:54:09;-2.60;99.90
11963;DHT22;62678;52.130;5.584;2022-12-18T00:56:37;-2.60;99.90
11963;DHT22;62678;52.130;5.584;2022-12-18T00:59:04;-2.70;99.90
11963;DHT22;62678;52.130;5.584;2022-12-18T01:01:31;-2.80;99.90
11963;DHT22;62678;52.130;5.584;2022-12-18T01:04:01;-2.80;99.90
11963;DHT22;62678;52.130;5.584;2022-12-18T01:06:28;-2.90;99.90
11963;DHT22;62678;52.130;5.584;2022-12-18T01:08:55;-2.80;99.90
11963;DHT22;62678;52.130;5.584;2022-12-18T01:11:23;-2.80;99.90
11963;DHT22;62678;52.130;5.584;2022-12-18T01:13:51;-3.00;99.90
11963;DHT22;62678;52.130;5.584;2022-12-18T01:16:18;-3.10;99.90
11963;DHT22;62678;52.130;5.584;2022-12-18T01:18:45;-3.20;99.90
11963;DHT22;62678;52.130;5.584;2022-12-18T01:21:14;-3.20;99.90
11963;DHT22;62678;52.130;5.584;2022-12-18T01:23:41;-3.10;99.90
11963;DHT22;62678;52.130;5.584;2022-12-18T01:26:13;-3.20;99.90
11963;DHT22;62678;52.130;5.584;2022-12-18T01:28:40;-3.30;99.90
11963;DHT22;62678;52.130;5.584;2022-12-18T01:31:12;-3.40;99.90
11963;DHT22;62678;52.130;5.584;2022-12-18T01:33:40;-3.50;99.90
11963;DHT22;62678;52.130;5.584;2022-12-18T01:36:08;-3.60;99.90
11963;DHT22;62678;52.130;5.584;2022-12-18T01:38:36;-3.60;99.90
11963;DHT22;62678;52.130;5.584;2022-12-18T01:41:03;-3.60;99.90
11963;DHT22;62678;52.130;5.584;2022-12-18T01:43:49;-3.60;99.90
11963;DHT22;62678;52.130;5.584;2022-12-18T01:46:17;-3.60;99.90
11963;DHT22;62678;52.130;5.584;2022-12-18T01:48:47;-3.70;99.90
11963;DHT22;62678;52.130;5.584;2022-12-18T01:51:15;-3.80;99.90
11963;DHT22;62678;52.130;5.584;2022-12-18T01:53:44;-3.80;99.90
11963;DHT22;62678;52.130;5.584;2022-12-18T01:56:16;-3.80;99.90
11963;DHT22;62678;52.130;5.584;2022-12-18T01:58:51;-3.80;99.90
11963;DHT22;62678;52.130;5.584;2022-12-18T02:01:20;-3.80;99.90
11963;DHT22;62678;52.130;5.584;2022-12-18T02:03:48;-3.80;99.90
11963;DHT22;62678;52.130;5.584;2022-12-18T02:06:17;-3.90;99.90
11963;DHT22;62678;52.130;5.584;2022-12-18T02:08:58;-3.90;99.90
11963;DHT22;62678;52.130;5.584;2022-12-18T02:11:39;-3.90;99.90
11963;DHT22;62678;52.130;5.584;2022-12-18T02:14:15;-3.90;99.90
11963;DHT22;62678;52.130;5.584;2022-12-18T02:16:46;-4.00;99.90
11963;DHT22;62678;52.130;5.584;2022-12-18T02:19:26;-4.00;99.90
11963;DHT22;62678;52.130;5.584;2022-12-18T02:22:00;-4.00;99.90
11963;DHT22;62678;52.130;5.584;2022-12-18T02:24:37;-4.10;99.90
11963;DHT22;62678;52.130;5.584;2022-12-18T02:27:09;-4.00;99.90
11963;DHT22;62678;52.130;5.584;2022-12-18T02:29:40;-4.10;99.90
11963;DHT22;62678;52.130;5.584;2022-12-18T02:32:14;-4.10;99.90
11963;DHT22;62678;52.130;5.584;2022-12-18T02:34:43;-4.00;99.90
11963;DHT22;62678;52.130;5.584;2022-12-18T02:37:14;-4.00;99.90
11963;DHT22;62678;52.130;5.584;2022-12-18T02:39:43;-4.00;99.90
11963;DHT22;62678;52.130;5.584;2022-12-18T02:42:12;-4.10;99.90
11963;DHT22;62678;52.130;5.584;2022-12-18T02:44:42;-4.10;99.90
11963;DHT22;62678;52.130;5.584;2022-12-18T02:47:10;-4.20;99.90
11963;DHT22;62678;52.130;5.584;2022-12-18T02:49:47;-4.20;99.90
11963;DHT22;62678;52.130;5.584;2022-12-18T02:52:27;-4.10;99.90
11963;DHT22;62678;52.130;5.584;2022-12-18T02:55:03;-4.20;99.90
11963;DHT22;62678;52.130;5.584;2022-12-18T02:57:39;-4.20;99.90
11963;DHT22;62678;52.130;5.584;2022-12-18T03:00:11;-4.20;99.90
11963;DHT22;62678;52.130;5.584;2022-12-18T03:02:43;-4.30;99.90
11963;DHT22;62678;52.130;5.584;2022-12-18T03:05:13;-4.30;99.90
11963;DHT22;62678;52.130;5.584;2022-12-18T03:07:46;-4.40;99.90
11963;DHT22;62678;52.130;5.584;2022-12-18T03:10:19;-4.40;99.90
11963;DHT22;62678;52.130;5.584;2022-12-18T03:12:52;-4.40;99.90
11963;DHT22;62678;52.130;5.584;2022-12-18T03:15:23;-4.40;99.90
11963;DHT22;62678;52.130;5.584;2022-12-18T03:17:56;-4.40;99.90
11963;DHT22;62678;52.130;5.584;2022-12-18T03:20:26;-4.50;99.90
11963;DHT22;62678;52.130;5.584;2022-12-18T03:22:59;-4.50;99.90
11963;DHT22;62678;52.130;5.584;2022-12-18T03:25:30;-4.50;99.90
11963;DHT22;62678;52.130;5.584;2022-12-18T03:28:00;-4.50;99.90
11963;DHT22;62678;52.130;5.584;2022-12-18T03:30:30;-4.50;99.90
11963;DHT22;62678;52.130;5.584;2022-12-18T03:33:04;-4.60;99.90
11963;DHT22;62678;52.130;5.584;2022-12-18T03:35:35;-4.60;99.90
11963;DHT22;62678;52.130;5.584;2022-12-18T03:38:03;-4.50;99.90
11963;DHT22;62678;52.130;5.584;2022-12-18T03:40:34;-4.60;99.90
11963;DHT22;62678;52.130;5.584;2022-12-18T03:43:07;-4.60;99.90
11963;DHT22;62678;52.130;5.584;2022-12-18T03:45:38;-4.60;99.90
11963;DHT22;62678;52.130;5.584;2022-12-18T03:48:14;-4.60;99.90
11963;DHT22;62678;52.130;5.584;2022-12-18T03:50:46;-4.60;99.90
11963;DHT22;62678;52.130;5.584;2022-12-18T03:53:24;-4.60;99.90
11963;DHT22;62678;52.130;5.584;2022-12-18T03:55:52;-4.50;99.90
11963;DHT22;62678;52.130;5.584;2022-12-18T03:58:24;-4.60;99.90
11963;DHT22;62678;52.130;5.584;2022-12-18T04:00:53;-4.60;99.90
11963;DHT22;62678;52.130;5.584;2022-12-18T04:03:23;-4.60;99.90
11963;DHT22;62678;52.130;5.584;2022-12-18T04:05:51;-4.60;99.90
11963;DHT22;62678;52.130;5.584;2022-12-18T04:08:19;-4.60;99.90
11963;DHT22;62678;52.130;5.584;2022-12-18T04:10:47;-4.60;99.90
11963;DHT22;62678;52.130;5.584;2022-12-18T04:13:23;-4.60;99.90
11963;DHT22;62678;52.130;5.584;2022-12-18T04:15:51;-4.60;99.90
11963;DHT22;62678;52.130;5.584;2022-12-18T04:18:18;-4.70;99.90
11963;DHT22;62678;52.130;5.584;2022-12-18T04:20:45;-4.80;99.90
11963;DHT22;62678;52.130;5.584;2022-12-18T04:23:11;-4.80;99.90
11963;DHT22;62678;52.130;5.584;2022-12-18T04:25:38;-4.70;99.90
11963;DHT22;62678;52.130;5.584;2022-12-18T04:28:05;-4.70;99.90
11963;DHT22;62678;52.130;5.584;2022-12-18T04:30:33;-4.80;99.90
11963;DHT22;62678;52.130;5.584;2022-12-18T04:33:00;-4.80;99.90
11963;DHT22;62678;52.130;5.584;2022-12-18T04:35:27;-4.80;99.90
11963;DHT22;62678;52.130;5.584;2022-12-18T04:37:54;-4.70;99.90
11963;DHT22;62678;52.130;5.584;2022-12-18T04:40:21;-4.70;99.90
11963;DHT22;62678;52.130;5.584;2022-12-18T04:42:47;-4.70;99.90
11963;DHT22;62678;52.130;5.584;2022-12-18T04:45:14;-4.70;99.90
11963;DHT22;62678;52.130;5.584;2022-12-18T04:47:42;-4.70;99.90
11963;DHT22;62678;52.130;5.584;2022-12-18T04:50:09;-4.80;99.90
11963;DHT22;62678;52.130;5.584;2022-12-18T04:52:36;-4.80;99.90
11963;DHT22;62678;52.130;5.584;2022-12-18T04:55:04;-4.80;99.90
11963;DHT22;62678;52.130;5.584;2022-12-18T04:57:31;-4.80;99.90
11963;DHT22;62678;52.130;5.584;2022-12-18T04:59:57;-4.90;99.90
11963;DHT22;62678;52.130;5.584;2022-12-18T05:02:24;-4.90;99.90
11963;DHT22;62678;52.130;5.584;2022-12-18T05:04:53;-5.00;99.90
11963;DHT22;62678;52.130;5.584;2022-12-18T05:07:20;-5.00;99.90
11963;DHT22;62678;52.130;5.584;2022-12-18T05:09:47;-4.90;99.90
11963;DHT22;62678;52.130;5.584;2022-12-18T05:12:14;-4.90;99.90
11963;DHT22;62678;52.130;5.584;2022-12-18T05:14:41;-4.90;99.90
11963;DHT22;62678;52.130;5.584;2022-12-18T05:17:08;-4.90;99.90
11963;DHT22;62678;52.130;5.584;2022-12-18T05:19:35;-4.90;99.90
11963;DHT22;62678;52.130;5.584;2022-12-18T05:22:06;-4.90;99.90
11963;DHT22;62678;52.130;5.584;2022-12-18T05:24:35;-4.90;99.90
11963;DHT22;62678;52.130;5.584;2022-12-18T05:27:02;-4.90;99.90
11963;DHT22;62678;52.130;5.584;2022-12-18T05:29:29;-4.90;99.90
11963;DHT22;62678;52.130;5.584;2022-12-18T05:31:56;-4.90;99.90
11963;DHT22;62678;52.130;5.584;2022-12-18T05:34:23;-4.90;99.90
11963;DHT22;62678;52.130;5.584;2022-12-18T05:36:49;-4.80;99.90
11963;DHT22;62678;52.130;5.584;2022-12-18T05:39:18;-4.80;99.90
11963;DHT22;62678;52.130;5.584;2022-12-18T05:41:44;-4.80;99.90
11963;DHT22;62678;52.130;5.584;2022-12-18T05:44:11;-4.80;99.90
11963;DHT22;62678;52.130;5.584;2022-12-18T05:46:38;-4.80;99.90
11963;DHT22;62678;52.130;5.584;2022-12-18T05:49:08;-4.80;99.90
11963;DHT22;62678;52.130;5.584;2022-12-18T05:51:34;-4.80;99.90
11963;DHT22;62678;52.130;5.584;2022-12-18T05:54:01;-4.80;99.90
11963;DHT22;62678;52.130;5.584;2022-12-18T05:56:30;-4.80;99.90
11963;DHT22;62678;52.130;5.584;2022-12-18T05:58:56;-4.80;99.90
11963;DHT22;62678;52.130;5.584;2022-12-18T06:01:25;-4.80;99.90
11963;DHT22;62678;52.130;5.584;2022-12-18T06:03:53;-4.90;99.90
11963;DHT22;62678;52.130;5.584;2022-12-18T06:06:21;-4.90;99.90
11963;DHT22;62678;52.130;5.584;2022-12-18T06:08:49;-4.90;99.90
11963;DHT22;62678;52.130;5.584;2022-12-18T06:11:18;-4.90;99.90
11963;DHT22;62678;52.130;5.584;2022-12-18T06:13:49;-4.90;99.90
11963;DHT22;62678;52.130;5.584;2022-12-18T06:16:15;-4.90;99.90
11963;DHT22;62678;52.130;5.584;2022-12-18T06:18:42;-5.00;99.90
11963;DHT22;62678;52.130;5.584;2022-12-18T06:21:09;-5.00;99.90
11963;DHT22;62678;52.130;5.584;2022-12-18T06:23:36;-5.00;99.90
11963;DHT22;62678;52.130;5.584;2022-12-18T06:26:04;-5.00;99.90
11963;DHT22;62678;52.130;5.584;2022-12-18T06:28:31;-5.00;99.90
11963;DHT22;62678;52.130;5.584;2022-12-18T06:31:00;-5.10;99.90
11963;DHT22;62678;52.130;5.584;2022-12-18T06:33:27;-5.10;99.90
11963;DHT22;62678;52.130;5.584;2022-12-18T06:35:54;-5.20;99.90
11963;DHT22;62678;52.130;5.584;2022-12-18T06:38:21;-5.20;99.90
11963;DHT22;62678;52.130;5.584;2022-12-18T06:40:48;-5.20;99.90
11963;DHT22;62678;52.130;5.584;2022-12-18T06:43:15;-5.20;99.90
11963;DHT22;62678;52.130;5.584;2022-12-18T06:45:41;-5.30;99.90
11963;DHT22;62678;52.130;5.584;2022-12-18T06:48:10;-5.30;99.90
11963;DHT22;62678;52.130;5.584;2022-12-18T06:50:36;-5.30;99.90
11963;DHT22;62678;52.130;5.584;2022-12-18T06:53:03;-5.40;99.90
11963;DHT22;62678;52.130;5.584;2022-12-18T06:55:30;-5.40;99.90
11963;DHT22;62678;52.130;5.584;2022-12-18T06:57:57;-5.40;99.90
11963;DHT22;62678;52.130;5.584;2022-12-18T07:00:24;-5.40;99.90
11963;DHT22;62678;52.130;5.584;2022-12-18T07:02:51;-5.40;99.90
11963;DHT22;62678;52.130;5.584;2022-12-18T07:05:20;-5.40;99.90
11963;DHT22;62678;52.130;5.584;2022-12-18T07:07:47;-5.40;99.90
11963;DHT22;62678;52.130;5.584;2022-12-18T07:10:14;-5.40;99.90
11963;DHT22;62678;52.130;5.584;2022-12-18T07:12:41;-5.40;99.90
11963;DHT22;62678;52.130;5.584;2022-12-18T07:15:09;-5.30;99.90
11963;DHT22;62678;52.130;5.584;2022-12-18T07:17:36;-5.10;99.90
11963;DHT22;62678;52.130;5.584;2022-12-18T07:20:04;-5.10;99.90
11963;DHT22;62678;52.130;5.584;2022-12-18T07:22:33;-5.00;99.90
11963;DHT22;62678;52.130;5.584;2022-12-18T07:25:00;-4.90;99.90
11963;DHT22;62678;52.130;5.584;2022-12-18T07:27:27;-4.80;99.90
11963;DHT22;62678;52.130;5.584;2022-12-18T07:29:54;-4.70;99.90
11963;DHT22;62678;52.130;5.584;2022-12-18T07:32:21;-4.50;99.90
11963;DHT22;62678;52.130;5.584;2022-12-18T07:34:48;-4.40;99.90
11963;DHT22;62678;52.130;5.584;2022-12-18T07:37:15;-4.40;99.90
11963;DHT22;62678;52.130;5.584;2022-12-18T07:39:43;-4.30;99.90
11963;DHT22;62678;52.130;5.584;2022-12-18T07:42:11;-4.20;99.90
11963;DHT22;62678;52.130;5.584;2022-12-18T07:44:55;-4.20;99.90
11963;DHT22;62678;52.130;5.584;2022-12-18T07:47:22;-4.10;99.90
11963;DHT22;62678;52.130;5.584;2022-12-18T07:49:50;-4.10;99.90
11963;DHT22;62678;52.130;5.584;2022-12-18T07:52:17;-4.00;99.90
11963;DHT22;62678;52.130;5.584;2022-12-18T07:54:46;-4.00;99.90
11963;DHT22;62678;52.130;5.584;2022-12-18T07:57:14;-3.90;99.90
11963;DHT22;62678;52.130;5.584;2022-12-18T07:59:42;-3.90;99.90
11963;DHT22;62678;52.130;5.584;2022-12-18T08:02:09;-3.80;99.90
11963;DHT22;62678;52.130;5.584;2022-12-18T08:04:36;-3.70;99.90
11963;DHT22;62678;52.130;5.584;2022-12-18T08:07:04;-3.80;99.90
11963;DHT22;62678;52.130;5.584;2022-12-18T08:09:31;-3.70;99.90
11963;DHT22;62678;52.130;5.584;2022-12-18T08:12:00;-3.70;99.90
11963;DHT22;62678;52.130;5.584;2022-12-18T08:14:27;-3.60;99.90
11963;DHT22;62678;52.130;5.584;2022-12-18T08:16:54;-3.50;99.90
11963;DHT22;62678;52.130;5.584;2022-12-18T08:19:22;-3.40;99.90
11963;DHT22;62678;52.130;5.584;2022-12-18T08:21:49;-3.30;99.90
11963;DHT22;62678;52.130;5.584;2022-12-18T08:24:16;-3.40;99.90
11963;DHT22;62678;52.130;5.584;2022-12-18T08:26:43;-3.20;99.90
11963;DHT22;62678;52.130;5.584;2022-12-18T08:29:12;-3.10;99.90
11963;DHT22;62678;52.130;5.584;2022-12-18T08:31:39;-3.10;99.90
11963;DHT22;62678;52.130;5.584;2022-12-18T08:34:07;-3.10;99.90
11963;DHT22;62678;52.130;5.584;2022-12-18T08:36:34;-3.00;99.90
11963;DHT22;62678;52.130;5.584;2022-12-18T08:39:01;-3.00;99.90
11963;DHT22;62678;52.130;5.584;2022-12-18T08:41:29;-2.90;99.90
11963;DHT22;62678;52.130;5.584;2022-12-18T08:43:56;-2.80;99.90
11963;DHT22;62678;52.130;5.584;2022-12-18T08:46:43;-2.80;99.90
11963;DHT22;62678;52.130;5.584;2022-12-18T08:49:11;-2.80;99.90
11963;DHT22;62678;52.130;5.584;2022-12-18T08:51:39;-2.80;99.90
11963;DHT22;62678;52.130;5.584;2022-12-18T08:54:07;-2.70;99.90
11963;DHT22;62678;52.130;5.584;2022-12-18T08:56:34;-2.70;99.90
11963;DHT22;62678;52.130;5.584;2022-12-18T08:59:02;-2.70;99.90
11963;DHT22;62678;52.130;5.584;2022-12-18T09:01:29;-2.60;99.90
11963;DHT22;62678;52.130;5.584;2022-12-18T09:03:58;-2.60;99.90
11963;DHT22;62678;52.130;5.584;2022-12-18T09:06:25;-2.60;99.90
11963;DHT22;62678;52.130;5.584;2022-12-18T09:08:53;-2.50;99.90
11963;DHT22;62678;52.130;5.584;2022-12-18T09:11:22;-2.40;99.90
11963;DHT22;62678;52.130;5.584;2022-12-18T09:13:50;-2.20;99.90
11963;DHT22;62678;52.130;5.584;2022-12-18T09:16:18;-2.20;99.90
11963;DHT22;62678;52.130;5.584;2022-12-18T09:18:46;-2.20;99.90
11963;DHT22;62678;52.130;5.584;2022-12-18T09:21:16;-2.10;99.90
11963;DHT22;62678;52.130;5.584;2022-12-18T09:23:48;-2.00;99.90
11963;DHT22;62678;52.130;5.584;2022-12-18T09:26:15;-1.90;99.90
11963;DHT22;62678;52.130;5.584;2022-12-18T09:28:43;-1.90;99.90
11963;DHT22;62678;52.130;5.584;2022-12-18T09:31:11;-1.90;99.90
11963;DHT22;62678;52.130;5.584;2022-12-18T09:33:42;-1.80;99.90
11963;DHT22;62678;52.130;5.584;2022-12-18T09:36:13;-1.70;99.90
11963;DHT22;62678;52.130;5.584;2022-12-18T09:38:41;-1.70;99.90
11963;DHT22;62678;52.130;5.584;2022-12-18T09:41:20;-1.70;99.90
11963;DHT22;62678;52.130;5.584;2022-12-18T09:43:52;-1.70;99.90
11963;DHT22;62678;52.130;5.584;2022-12-18T09:46:26;-1.60;99.90
11963;DHT22;62678;52.130;5.584;2022-12-18T09:48:56;-1.50;99.90
11963;DHT22;62678;52.130;5.584;2022-12-18T09:51:28;-1.40;99.90
11963;DHT22;62678;52.130;5.584;2022-12-18T09:54:01;-1.40;99.90
11963;DHT22;62678;52.130;5.584;2022-12-18T09:56:35;-1.30;99.90
11963;DHT22;62678;52.130;5.584;2022-12-18T09:59:04;-1.20;99.90
11963;DHT22;62678;52.130;5.584;2022-12-18T10:01:32;-1.10;99.90
11963;DHT22;62678;52.130;5.584;2022-12-18T10:04:00;-0.90;99.90
11963;DHT22;62678;52.130;5.584;2022-12-18T10:06:34;-0.90;99.90
11963;DHT22;62678;52.130;5.584;2022-12-18T10:09:07;-0.90;99.90
11963;DHT22;62678;52.130;5.584;2022-12-18T10:11:43;-0.90;99.90
11963;DHT22;62678;52.130;5.584;2022-12-18T10:14:20;-0.80;99.90
11963;DHT22;62678;52.130;5.584;2022-12-18T10:16:57;-0.80;99.90
11963;DHT22;62678;52.130;5.584;2022-12-18T10:19:35;-0.80;99.90
11963;DHT22;62678;52.130;5.584;2022-12-18T10:22:19;-0.70;99.90
11963;DHT22;62678;52.130;5.584;2022-12-18T10:24:54;-0.60;99.90
11963;DHT22;62678;52.130;5.584;2022-12-18T10:27:24;-0.70;99.90
11963;DHT22;62678;52.130;5.584;2022-12-18T10:29:52;-0.60;99.90
11963;DHT22;62678;52.130;5.584;2022-12-18T10:32:21;-0.60;99.90
11963;DHT22;62678;52.130;5.584;2022-12-18T10:34:49;-0.50;99.90
11963;DHT22;62678;52.130;5.584;2022-12-18T10:37:19;-0.40;99.90
11963;DHT22;62678;52.130;5.584;2022-12-18T10:40:04;-0.30;99.90
11963;DHT22;62678;52.130;5.584;2022-12-18T10:42:33;-0.30;99.90
11963;DHT22;62678;52.130;5.584;2022-12-18T10:45:02;-0.30;99.90
11963;DHT22;62678;52.130;5.584;2022-12-18T10:47:30;-0.30;99.90
11963;DHT22;62678;52.130;5.584;2022-12-18T10:49:57;-0.30;99.90
11963;DHT22;62678;52.130;5.584;2022-12-18T10:52:25;-0.30;99.90
11963;DHT22;62678;52.130;5.584;2022-12-18T10:54:58;-0.30;99.90
11963;DHT22;62678;52.130;5.584;2022-12-18T10:57:33;-0.20;99.90
11963;DHT22;62678;52.130;5.584;2022-12-18T11:00:23;-0.20;99.90
11963;DHT22;62678;52.130;5.584;2022-12-18T11:02:50;-0.10;99.90
11963;DHT22;62678;52.130;5.584;2022-12-18T11:05:29;0.00;99.90
11963;DHT22;62678;52.130;5.584;2022-12-18T11:07:57;-0.10;99.90
11963;DHT22;62678;52.130;5.584;2022-12-18T11:10:30;-0.10;99.90
11963;DHT22;62678;52.130;5.584;2022-12-18T11:13:10;0.00;99.90
11963;DHT22;62678;52.130;5.584;2022-12-18T11:15:40;0.10;99.90
11963;DHT22;62678;52.130;5.584;2022-12-18T11:18:16;0.00;99.90
11963;DHT22;62678;52.130;5.584;2022-12-18T11:20:50;0.10;99.90
11963;DHT22;62678;52.130;5.584;2022-12-18T11:23:19;0.20;99.90
11963;DHT22;62678;52.130;5.584;2022-12-18T11:25:53;0.20;99.90
11963;DHT22;62678;52.130;5.584;2022-12-18T11:28:43;0.30;99.90
11963;DHT22;62678;52.130;5.584;2022-12-18T11:31:23;0.30;99.90
11963;DHT22;62678;52.130;5.584;2022-12-18T11:34:05;0.30;99.90
11963;DHT22;62678;52.130;5.584;2022-12-18T11:36:40;0.30;99.90
11963;DHT22;62678;52.130;5.584;2022-12-18T11:39:14;0.40;99.90
11963;DHT22;62678;52.130;5.584;2022-12-18T11:41:48;0.40;99.90
11963;DHT22;62678;52.130;5.584;2022-12-18T11:44:41;0.50;99.90
11963;DHT22;62678;52.130;5.584;2022-12-18T11:47:16;0.60;99.90
11963;DHT22;62678;52.130;5.584;2022-12-18T11:49:49;0.60;99.90
11963;DHT22;62678;52.130;5.584;2022-12-18T11:52:19;0.60;99.90
11963;DHT22;62678;52.130;5.584;2022-12-18T11:54:46;0.70;99.90
11963;DHT22;62678;52.130;5.584;2022-12-18T11:57:24;0.70;99.90
11963;DHT22;62678;52.130;5.584;2022-12-18T11:59:59;0.80;99.90
11963;DHT22;62678;52.130;5.584;2022-12-18T12:02:49;1.00;99.90
11963;DHT22;62678;52.130;5.584;2022-12-18T12:05:33;0.80;99.90
11963;DHT22;62678;52.130;5.584;2022-12-18T12:08:11;0.90;99.90
11963;DHT22;62678;52.130;5.584;2022-12-18T12:10:48;0.90;99.90
11963;DHT22;62678;52.130;5.584;2022-12-18T12:13:27;1.00;99.90
11963;DHT22;62678;52.130;5.584;2022-12-18T12:16:09;0.90;99.90
11963;DHT22;62678;52.130;5.584;2022-12-18T12:18:55;0.90;99.90
11963;DHT22;62678;52.130;5.584;2022-12-18T12:21:28;0.90;99.90
11963;DHT22;62678;52.130;5.584;2022-12-18T12:24:04;1.10;99.90
11963;DHT22;62678;52.130;5.584;2022-12-18T12:26:41;1.00;99.90
11963;DHT22;62678;52.130;5.584;2022-12-18T12:29:25;1.10;99.90
11963;DHT22;62678;52.130;5.584;2022-12-18T12:32:04;1.00;99.90
11963;DHT22;62678;52.130;5.584;2022-12-18T12:34:39;1.10;99.90
11963;DHT22;62678;52.130;5.584;2022-12-18T12:37:19;1.00;99.90
11963;DHT22;62678;52.130;5.584;2022-12-18T12:39:52;1.00;99.90
11963;DHT22;62678;52.130;5.584;2022-12-18T12:42:26;1.00;99.90
11963;DHT22;62678;52.130;5.584;2022-12-18T12:45:18;1.10;99.90
11963;DHT22;62678;52.130;5.584;2022-12-18T12:47:48;1.10;99.90
11963;DHT22;62678;52.130;5.584;2022-12-18T12:50:18;1.00;99.90
11963;DHT22;62678;52.130;5.584;2022-12-18T12:52:47;1.10;99.90
11963;DHT22;62678;52.130;5.584;2022-12-18T12:55:20;1.20;99.90
11963;DHT22;62678;52.130;5.584;2022-12-18T12:57:57;1.20;99.90
11963;DHT22;62678;52.130;5.584;2022-12-18T13:00:34;1.30;99.90
11963;DHT22;62678;52.130;5.584;2022-12-18T13:03:09;1.30;99.90
11963;DHT22;62678;52.130;5.584;2022-12-18T13:05:43;1.20;99.90
11963;DHT22;62678;52.130;5.584;2022-12-18T13:08:23;1.20;99.90
11963;DHT22;62678;52.130;5.584;2022-12-18T13:10:51;1.40;99.90
11963;DHT22;62678;52.130;5.584;2022-12-18T13:13:49;1.20;99.90
11963;DHT22;62678;52.130;5.584;2022-12-18T13:16:20;1.20;99.90
11963;DHT22;62678;52.130;5.584;2022-12-18T13:18:58;1.20;99.90
11963;DHT22;62678;52.130;5.584;2022-12-18T13:21:53;1.20;99.90
11963;DHT22;62678;52.130;5.584;2022-12-18T13:24:25;1.20;99.90
11963;DHT22;62678;52.130;5.584;2022-12-18T13:26:53;1.20;99.90
11963;DHT22;62678;52.130;5.584;2022-12-18T13:29:44;1.20;99.90
11963;DHT22;62678;52.130;5.584;2022-12-18T13:32:22;1.20;99.90
11963;DHT22;62678;52.130;5.584;2022-12-18T13:37:55;1.20;99.90
11963;DHT22;62678;52.130;5.584;2022-12-18T13:43:34;1.20;99.90
11963;DHT22;62678;52.130;5.584;2022-12-18T13:46:05;1.30;99.90
11963;DHT22;62678;52.130;5.584;2022-12-18T13:48:37;1.40;99.90
11963;DHT22;62678;52.130;5.584;2022-12-18T13:51:07;1.40;99.90
11963;DHT22;62678;52.130;5.584;2022-12-18T13:53:39;1.30;99.90
11963;DHT22;62678;52.130;5.584;2022-12-18T13:56:09;1.40;99.90
11963;DHT22;62678;52.130;5.584;2022-12-18T13:58:36;1.30;99.90
11963;DHT22;62678;52.130;5.584;2022-12-18T14:01:03;1.30;99.90
11963;DHT22;62678;52.130;5.584;2022-12-18T14:03:30;1.40;99.90
11963;DHT22;62678;52.130;5.584;2022-12-18T14:06:05;1.20;99.90
11963;DHT22;62678;52.130;5.584;2022-12-18T14:08:38;1.20;99.90
11963;DHT22;62678;52.130;5.584;2022-12-18T14:11:07;1.10;99.90
11963;DHT22;62678;52.130;5.584;2022-12-18T14:13:46;1.20;99.90
11963;DHT22;62678;52.130;5.584;2022-12-18T14:16:14;1.20;99.90
11963;DHT22;62678;52.130;5.584;2022-12-18T14:18:45;1.20;99.90
11963;DHT22;62678;52.130;5.584;2022-12-18T14:21:21;1.20;99.90
11963;DHT22;62678;52.130;5.584;2022-12-18T14:23:48;1.20;99.90
11963;DHT22;62678;52.130;5.584;2022-12-18T14:26:23;1.30;99.90
11963;DHT22;62678;52.130;5.584;2022-12-18T14:28:53;1.40;99.90
11963;DHT22;62678;52.130;5.584;2022-12-18T14:31:22;1.30;99.90
11963;DHT22;62678;52.130;5.584;2022-12-18T14:33:49;1.30;99.90
11963;DHT22;62678;52.130;5.584;2022-12-18T14:36:19;1.20;99.90
11963;DHT22;62678;52.130;5.584;2022-12-18T14:38:49;1.10;99.90
11963;DHT22;62678;52.130;5.584;2022-12-18T14:41:17;1.10;99.90
11963;DHT22;62678;52.130;5.584;2022-12-18T14:43:45;1.20;99.90
11963;DHT22;62678;52.130;5.584;2022-12-18T14:46:30;1.10;99.90
11963;DHT22;62678;52.130;5.584;2022-12-18T14:49:01;1.10;99.90
11963;DHT22;62678;52.130;5.584;2022-12-18T14:51:30;1.10;99.90
11963;DHT22;62678;52.130;5.584;2022-12-18T14:53:59;1.10;99.90
11963;DHT22;62678;52.130;5.584;2022-12-18T14:56:28;1.10;99.90
11963;DHT22;62678;52.130;5.584;2022-12-18T14:58:57;1.10;99.90
11963;DHT22;62678;52.130;5.584;2022-12-18T15:01:27;0.90;99.90
11963;DHT22;62678;52.130;5.584;2022-12-18T15:03:55;0.80;99.90
11963;DHT22;62678;52.130;5.584;2022-12-18T15:06:32;1.00;99.90
11963;DHT22;62678;52.130;5.584;2022-12-18T15:09:00;1.00;99.90
11963;DHT22;62678;52.130;5.584;2022-12-18T15:11:32;1.10;99.90
11963;DHT22;62678;52.130;5.584;2022-12-18T15:14:03;1.10;99.90
11963;DHT22;62678;52.130;5.584;2022-12-18T15:16:50;1.10;99.90
11963;DHT22;62678;52.130;5.584;2022-12-18T15:19:18;1.00;99.90
11963;DHT22;62678;52.130;5.584;2022-12-18T15:21:47;1.00;99.90
11963;DHT22;62678;52.130;5.584;2022-12-18T15:24:18;1.00;99.90
11963;DHT22;62678;52.130;5.584;2022-12-18T15:26:46;0.90;99.90
11963;DHT22;62678;52.130;5.584;2022-12-18T15:29:20;0.90;99.90
11963;DHT22;62678;52.130;5.584;2022-12-18T15:32:01;1.00;99.90
11963;DHT22;62678;52.130;5.584;2022-12-18T15:34:29;1.00;99.90
11963;DHT22;62678;52.130;5.584;2022-12-18T15:36:57;0.90;99.90
11963;DHT22;62678;52.130;5.584;2022-12-18T15:39:33;0.90;99.90
11963;DHT22;62678;52.130;5.584;2022-12-18T15:42:20;1.00;99.90
11963;DHT22;62678;52.130;5.584;2022-12-18T15:45:14;1.00;99.90
11963;DHT22;62678;52.130;5.584;2022-12-18T15:47:48;0.90;99.90
11963;DHT22;62678;52.130;5.584;2022-12-18T15:50:25;0.90;99.90
11963;DHT22;62678;52.130;5.584;2022-12-18T15:53:03;0.90;99.90
11963;DHT22;62678;52.130;5.584;2022-12-18T15:55:33;1.00;99.90
11963;DHT22;62678;52.130;5.584;2022-12-18T15:58:17;0.90;99.90
11963;DHT22;62678;52.130;5.584;2022-12-18T16:00:45;0.90;99.90
11963;DHT22;62678;52.130;5.584;2022-12-18T16:03:12;1.00;99.90
11963;DHT22;62678;52.130;5.584;2022-12-18T16:05:39;0.90;99.90